sensor_id;sensor_type;location;lat;lon;timestamp;P1;P2;P0
56495;PMS5003;42804;55.762;38.084;2024-02-04T00:01:22;35.60;26.20;13.00
56495;PMS5003;42804;55.762;38.084;2024-02-04T00:03:51;33.40;30.80;17.20
56495;PMS5003;42804;55.762;38.084;2024-02-04T00:06:20;28.00;24.20;10.00
56495;PMS5003;42804;55.762;38.084;2024-02-04T00:08:48;34.40;26.60;13.00
56495;PMS5003;42804;55.762;38.084;2024-02-04T00:11:16;32.40;26.40;16.00
56495;PMS5003;42804;55.762;38.084;2024-02-04T00:13:45;35.60;29.80;16.00
56495;PMS5003;42804;55.762;38.084;2024-02-04T00:16:13;38.00;29.00;17.20
56495;PMS5003;42804;55.762;38.084;2024-02-04T00:18:42;24.60;18.20;7.40
56495;PMS5003;42804;55.762;38.084;2024-02-04T00:21:13;26.40;22.80;13.60
56495;PMS5003;42804;55.762;38.084;2024-02-04T00:23:42;30.00;24.00;14.60
56495;PMS5003;42804;55.762;38.084;2024-02-04T00:26:10;41.20;33.40;17.60
56495;PMS5003;42804;55.762;38.084;2024-02-04T00:28:39;29.00;24.00;12.80
56495;PMS5003;42804;55.762;38.084;2024-02-04T00:31:10;20.20;16.00;1.80
56495;PMS5003;42804;55.762;38.084;2024-02-04T00:33:38;31.60;27.20;14.20
56495;PMS5003;42804;55.762;38.084;2024-02-04T00:36:07;35.20;27.80;15.20
56495;PMS5003;42804;55.762;38.084;2024-02-04T00:38:37;35.40;26.40;15.40
56495;PMS5003;42804;55.762;38.084;2024-02-04T00:41:05;35.80;27.40;14.60
56495;PMS5003;42804;55.762;38.084;2024-02-04T00:43:33;26.80;22.00;9.60
56495;PMS5003;42804;55.762;38.084;2024-02-04T00:46:02;26.80;20.20;10.80
56495;PMS5003;42804;55.762;38.084;2024-02-04T00:48:31;32.20;24.40;10.00
56495;PMS5003;42804;55.762;38.084;2024-02-04T00:51:00;22.40;21.60;13.40
56495;PMS5003;42804;55.762;38.084;2024-02-04T00:53:28;34.20;26.80;13.80
56495;PMS5003;42804;55.762;38.084;2024-02-04T00:56:02;24.00;18.00;13.00
56495;PMS5003;42804;55.762;38.084;2024-02-04T00:58:31;29.40;22.00;10.80
56495;PMS5003;42804;55.762;38.084;2024-02-04T01:00:59;25.40;23.60;11.20
56495;PMS5003;42804;55.762;38.084;2024-02-04T01:03:28;26.80;21.20;11.60
56495;PMS5003;42804;55.762;38.084;2024-02-04T01:05:57;24.60;21.40;10.80
56495;PMS5003;42804;55.762;38.084;2024-02-04T01:08:25;27.60;21.80;9.80
56495;PMS5003;42804;55.762;38.084;2024-02-04T01:10:54;24.80;20.20;12.40
56495;PMS5003;42804;55.762;38.084;2024-02-04T01:13:24;28.20;23.20;14.60
56495;PMS5003;42804;55.762;38.084;2024-02-04T01:15:52;27.40;20.20;9.60
56495;PMS5003;42804;55.762;38.084;2024-02-04T01:18:20;25.20;21.60;8.60
56495;PMS5003;42804;55.762;38.084;2024-02-04T01:20:49;33.00;25.00;13.00
56495;PMS5003;42804;55.762;38.084;2024-02-04T01:23:17;26.20;18.80;11.00
56495;PMS5003;42804;55.762;38.084;2024-02-04T01:25:46;23.60;20.00;10.80
56495;PMS5003;42804;55.762;38.084;2024-02-04T01:28:15;27.00;21.80;12.00
56495;PMS5003;42804;55.762;38.084;2024-02-04T01:30:44;27.00;20.60;12.40
56495;PMS5003;42804;55.762;38.084;2024-02-04T01:33:13;29.20;22.60;13.40
56495;PMS5003;42804;55.762;38.084;2024-02-04T01:35:41;23.20;19.00;10.40
56495;PMS5003;42804;55.762;38.084;2024-02-04T01:38:10;26.40;19.80;12.20
56495;PMS5003;42804;55.762;38.084;2024-02-04T01:40:39;32.20;20.80;10.80
56495;PMS5003;42804;55.762;38.084;2024-02-04T01:43:07;14.00;9.60;0.80
56495;PMS5003;42804;55.762;38.084;2024-02-04T01:45:36;32.80;25.80;13.80
56495;PMS5003;42804;55.762;38.084;2024-02-04T01:48:06;25.80;21.60;12.40
56495;PMS5003;42804;55.762;38.084;2024-02-04T01:50:35;27.00;23.20;13.00
56495;PMS5003;42804;55.762;38.084;2024-02-04T01:53:04;24.20;19.80;10.40
56495;PMS5003;42804;55.762;38.084;2024-02-04T01:55:32;20.40;16.80;9.60
56495;PMS5003;42804;55.762;38.084;2024-02-04T01:58:01;20.20;15.00;6.00
56495;PMS5003;42804;55.762;38.084;2024-02-04T02:00:30;25.20;19.00;9.80
56495;PMS5003;42804;55.762;38.084;2024-02-04T02:02:59;19.00;14.40;9.00
56495;PMS5003;42804;55.762;38.084;2024-02-04T02:05:29;21.80;18.00;11.60
56495;PMS5003;42804;55.762;38.084;2024-02-04T02:07:58;29.40;23.20;11.20
56495;PMS5003;42804;55.762;38.084;2024-02-04T02:10:27;25.00;17.20;9.60
56495;PMS5003;42804;55.762;38.084;2024-02-04T02:12:56;31.80;24.80;10.00
56495;PMS5003;42804;55.762;38.084;2024-02-04T02:15:28;23.20;19.80;9.40
56495;PMS5003;42804;55.762;38.084;2024-02-04T02:17:59;19.40;18.00;9.00
56495;PMS5003;42804;55.762;38.084;2024-02-04T02:20:32;29.20;20.40;7.40
56495;PMS5003;42804;55.762;38.084;2024-02-04T02:23:06;14.60;10.40;6.00
56495;PMS5003;42804;55.762;38.084;2024-02-04T02:25:37;15.60;15.00;9.00
56495;PMS5003;42804;55.762;38.084;2024-02-04T02:28:06;16.40;15.60;9.00
56495;PMS5003;42804;55.762;38.084;2024-02-04T02:30:35;20.60;15.40;4.80
56495;PMS5003;42804;55.762;38.084;2024-02-04T02:33:04;19.20;15.00;7.80
56495;PMS5003;42804;55.762;38.084;2024-02-04T02:35:33;21.00;16.60;11.60
56495;PMS5003;42804;55.762;38.084;2024-02-04T02:38:03;15.20;15.20;9.20
56495;PMS5003;42804;55.762;38.084;2024-02-04T02:40:38;22.40;18.80;11.40
56495;PMS5003;42804;55.762;38.084;2024-02-04T02:43:07;21.80;16.40;9.00
56495;PMS5003;42804;55.762;38.084;2024-02-04T02:45:38;24.20;21.00;9.40
56495;PMS5003;42804;55.762;38.084;2024-02-04T02:48:09;11.20;6.20;3.80
56495;PMS5003;42804;55.762;38.084;2024-02-04T02:50:38;25.40;21.40;11.20
56495;PMS5003;42804;55.762;38.084;2024-02-04T02:53:06;25.00;17.60;10.40
56495;PMS5003;42804;55.762;38.084;2024-02-04T02:55:34;32.20;27.40;16.40
56495;PMS5003;42804;55.762;38.084;2024-02-04T02:58:04;45.40;38.60;20.20
56495;PMS5003;42804;55.762;38.084;2024-02-04T03:00:33;68.40;48.40;28.80
56495;PMS5003;42804;55.762;38.084;2024-02-04T03:03:01;50.80;42.40;24.20
56495;PMS5003;42804;55.762;38.084;2024-02-04T03:05:30;53.40;47.20;29.20
56495;PMS5003;42804;55.762;38.084;2024-02-04T03:07:58;39.60;33.40;18.40
56495;PMS5003;42804;55.762;38.084;2024-02-04T03:10:27;33.80;25.80;13.80
56495;PMS5003;42804;55.762;38.084;2024-02-04T03:12:56;27.20;25.80;15.40
56495;PMS5003;42804;55.762;38.084;2024-02-04T03:15:26;35.20;31.60;18.60
56495;PMS5003;42804;55.762;38.084;2024-02-04T03:17:54;35.60;29.00;17.60
56495;PMS5003;42804;55.762;38.084;2024-02-04T03:20:23;39.40;35.20;20.00
56495;PMS5003;42804;55.762;38.084;2024-02-04T03:22:51;27.20;22.80;10.80
56495;PMS5003;42804;55.762;38.084;2024-02-04T03:25:20;36.80;30.20;18.60
56495;PMS5003;42804;55.762;38.084;2024-02-04T03:27:50;43.60;29.80;18.80
56495;PMS5003;42804;55.762;38.084;2024-02-04T03:30:19;34.60;28.20;17.80
56495;PMS5003;42804;55.762;38.084;2024-02-04T03:32:50;35.40;29.20;15.00
56495;PMS5003;42804;55.762;38.084;2024-02-04T03:35:18;35.80;32.60;21.20
56495;PMS5003;42804;55.762;38.084;2024-02-04T03:37:47;34.80;27.80;18.00
56495;PMS5003;42804;55.762;38.084;2024-02-04T03:40:15;39.80;33.80;20.20
56495;PMS5003;42804;55.762;38.084;2024-02-04T03:42:44;32.80;30.00;16.80
56495;PMS5003;42804;55.762;38.084;2024-02-04T03:45:13;43.00;33.20;18.80
56495;PMS5003;42804;55.762;38.084;2024-02-04T03:47:41;46.00;39.00;21.40
56495;PMS5003;42804;55.762;38.084;2024-02-04T03:50:12;46.40;35.60;23.60
56495;PMS5003;42804;55.762;38.084;2024-02-04T03:52:40;41.20;39.20;23.00
56495;PMS5003;42804;55.762;38.084;2024-02-04T03:55:10;50.80;42.40;21.60
56495;PMS5003;42804;55.762;38.084;2024-02-04T03:57:38;39.00;28.40;17.60
56495;PMS5003;42804;55.762;38.084;2024-02-04T04:00:07;42.20;39.00;23.00
56495;PMS5003;42804;55.762;38.084;2024-02-04T04:02:39;37.40;32.60;22.00
56495;PMS5003;42804;55.762;38.084;2024-02-04T04:05:10;34.00;28.80;18.20
56495;PMS5003;42804;55.762;38.084;2024-02-04T04:07:40;40.00;30.60;17.80
56495;PMS5003;42804;55.762;38.084;2024-02-04T04:10:08;33.80;27.00;18.40
56495;PMS5003;42804;55.762;38.084;2024-02-04T04:12:37;27.40;24.40;15.00
56495;PMS5003;42804;55.762;38.084;2024-02-04T04:15:05;27.80;24.40;13.00
56495;PMS5003;42804;55.762;38.084;2024-02-04T04:17:34;22.40;16.40;9.80
56495;PMS5003;42804;55.762;38.084;2024-02-04T04:20:03;21.80;16.00;9.80
56495;PMS5003;42804;55.762;38.084;2024-02-04T04:22:31;18.60;16.40;10.80
56495;PMS5003;42804;55.762;38.084;2024-02-04T04:25:01;15.20;13.00;8.20
56495;PMS5003;42804;55.762;38.084;2024-02-04T04:27:30;11.00;11.00;6.50
56495;PMS5003;42804;55.762;38.084;2024-02-04T04:29:58;12.50;11.50;7.00
56495;PMS5003;42804;55.762;38.084;2024-02-04T04:32:29;17.25;11.00;5.25
56495;PMS5003;42804;55.762;38.084;2024-02-04T04:34:58;12.40;11.20;4.80
56495;PMS5003;42804;55.762;38.084;2024-02-04T04:37:26;9.40;7.00;4.80
56495;PMS5003;42804;55.762;38.084;2024-02-04T04:39:54;11.50;10.50;4.00
56495;PMS5003;42804;55.762;38.084;2024-02-04T04:42:24;13.25;12.25;7.00
56495;PMS5003;42804;55.762;38.084;2024-02-04T04:44:52;9.75;8.50;3.75
56495;PMS5003;42804;55.762;38.084;2024-02-04T04:47:21;10.75;10.75;6.00
56495;PMS5003;42804;55.762;38.084;2024-02-04T04:49:49;9.40;8.20;6.00
56495;PMS5003;42804;55.762;38.084;2024-02-04T04:52:18;11.00;7.00;4.00
56495;PMS5003;42804;55.762;38.084;2024-02-04T04:54:46;8.60;7.00;3.20
56495;PMS5003;42804;55.762;38.084;2024-02-04T04:57:14;10.00;9.25;5.50
56495;PMS5003;42804;55.762;38.084;2024-02-04T04:59:44;6.00;5.00;3.00
56495;PMS5003;42804;55.762;38.084;2024-02-04T05:02:12;8.50;6.75;3.25
56495;PMS5003;42804;55.762;38.084;2024-02-04T05:04:42;6.25;5.00;1.00
56495;PMS5003;42804;55.762;38.084;2024-02-04T05:07:10;4.00;3.75;1.50
56495;PMS5003;42804;55.762;38.084;2024-02-04T05:09:39;5.50;4.50;1.00
56495;PMS5003;42804;55.762;38.084;2024-02-04T05:12:08;13.00;9.50;6.00
56495;PMS5003;42804;55.762;38.084;2024-02-04T05:14:36;10.25;10.25;6.00
56495;PMS5003;42804;55.762;38.084;2024-02-04T05:17:05;11.00;9.75;6.00
56495;PMS5003;42804;55.762;38.084;2024-02-04T05:19:34;11.00;10.00;6.00
56495;PMS5003;42804;55.762;38.084;2024-02-04T05:22:03;6.75;6.00;3.00
56495;PMS5003;42804;55.762;38.084;2024-02-04T05:24:31;8.50;8.00;4.00
56495;PMS5003;42804;55.762;38.084;2024-02-04T05:26:58;7.25;4.00;3.00
56495;PMS5003;42804;55.762;38.084;2024-02-04T05:29:27;2.50;1.00;0.00
56495;PMS5003;42804;55.762;38.084;2024-02-04T05:31:55;7.00;6.00;3.00
56495;PMS5003;42804;55.762;38.084;2024-02-04T05:34:25;5.00;3.75;2.00
56495;PMS5003;42804;55.762;38.084;2024-02-04T05:36:53;4.00;3.00;1.00
56495;PMS5003;42804;55.762;38.084;2024-02-04T05:39:22;4.00;2.00;1.00
56495;PMS5003;42804;55.762;38.084;2024-02-04T05:41:51;2.00;1.00;0.00
56495;PMS5003;42804;55.762;38.084;2024-02-04T05:44:19;5.00;3.75;1.50
56495;PMS5003;42804;55.762;38.084;2024-02-04T05:46:47;8.50;4.50;2.00
56495;PMS5003;42804;55.762;38.084;2024-02-04T05:49:15;6.00;4.50;3.00
56495;PMS5003;42804;55.762;38.084;2024-02-04T05:51:45;6.25;5.00;3.00
56495;PMS5003;42804;55.762;38.084;2024-02-04T05:54:14;5.00;3.75;2.50
56495;PMS5003;42804;55.762;38.084;2024-02-04T05:56:42;4.00;3.00;1.00
56495;PMS5003;42804;55.762;38.084;2024-02-04T05:59:11;6.25;4.00;3.00
56495;PMS5003;42804;55.762;38.084;2024-02-04T06:01:40;6.50;6.00;3.50
56495;PMS5003;42804;55.762;38.084;2024-02-04T06:04:08;5.00;3.75;2.50
56495;PMS5003;42804;55.762;38.084;2024-02-04T06:06:36;3.75;3.75;3.00
56495;PMS5003;42804;55.762;38.084;2024-02-04T06:09:06;3.75;3.25;1.00
56495;PMS5003;42804;55.762;38.084;2024-02-04T06:11:35;3.50;2.00;0.00
56495;PMS5003;42804;55.762;38.084;2024-02-04T06:14:03;3.50;3.00;3.00
56495;PMS5003;42804;55.762;38.084;2024-02-04T06:16:32;1.00;1.00;0.25
56495;PMS5003;42804;55.762;38.084;2024-02-04T06:19:02;3.50;2.50;1.00
56495;PMS5003;42804;55.762;38.084;2024-02-04T06:21:30;3.25;1.00;0.00
56495;PMS5003;42804;55.762;38.084;2024-02-04T06:23:58;4.25;2.50;0.00
56495;PMS5003;42804;55.762;38.084;2024-02-04T06:26:28;3.25;3.00;0.25
56495;PMS5003;42804;55.762;38.084;2024-02-04T06:28:56;3.00;3.00;1.00
56495;PMS5003;42804;55.762;38.084;2024-02-04T06:31:25;0.25;0.25;0.00
56495;PMS5003;42804;55.762;38.084;2024-02-04T06:33:53;1.00;0.50;0.00
56495;PMS5003;42804;55.762;38.084;2024-02-04T06:36:21;0.50;0.50;0.00
56495;PMS5003;42804;55.762;38.084;2024-02-04T06:38:50;3.00;1.00;0.00
56495;PMS5003;42804;55.762;38.084;2024-02-04T06:41:18;3.00;1.00;0.00
56495;PMS5003;42804;55.762;38.084;2024-02-04T06:43:48;3.75;3.00;0.50
56495;PMS5003;42804;55.762;38.084;2024-02-04T06:46:23;6.50;3.50;0.50
56495;PMS5003;42804;55.762;38.084;2024-02-04T06:48:53;3.00;1.00;1.00
56495;PMS5003;42804;55.762;38.084;2024-02-04T06:51:22;2.50;2.50;0.75
56495;PMS5003;42804;55.762;38.084;2024-02-04T06:53:50;3.00;2.00;1.00
56495;PMS5003;42804;55.762;38.084;2024-02-04T06:56:19;2.00;1.50;1.00
56495;PMS5003;42804;55.762;38.084;2024-02-04T06:58:48;3.25;1.00;0.50
56495;PMS5003;42804;55.762;38.084;2024-02-04T07:01:16;3.25;3.00;1.00
56495;PMS5003;42804;55.762;38.084;2024-02-04T07:03:45;0.50;0.50;0.00
56495;PMS5003;42804;55.762;38.084;2024-02-04T07:06:13;3.00;2.00;1.00
56495;PMS5003;42804;55.762;38.084;2024-02-04T07:08:42;1.00;1.00;0.00
56495;PMS5003;42804;55.762;38.084;2024-02-04T07:11:10;1.00;1.00;0.50
56495;PMS5003;42804;55.762;38.084;2024-02-04T07:13:39;0.75;0.25;0.00
56495;PMS5003;42804;55.762;38.084;2024-02-04T07:16:08;3.75;3.00;0.00
56495;PMS5003;42804;55.762;38.084;2024-02-04T07:18:37;1.00;1.00;0.25
56495;PMS5003;42804;55.762;38.084;2024-02-04T07:21:06;1.00;1.00;0.00
56495;PMS5003;42804;55.762;38.084;2024-02-04T07:23:34;1.00;1.00;0.00
56495;PMS5003;42804;55.762;38.084;2024-02-04T07:26:02;1.25;1.25;0.00
56495;PMS5003;42804;55.762;38.084;2024-02-04T07:28:31;0.00;0.00;0.00
56495;PMS5003;42804;55.762;38.084;2024-02-04T07:30:59;1.50;0.00;0.00
56495;PMS5003;42804;55.762;38.084;2024-02-04T07:33:29;1.00;1.00;0.00
56495;PMS5003;42804;55.762;38.084;2024-02-04T07:35:59;0.00;0.00;0.00
56495;PMS5003;42804;55.762;38.084;2024-02-04T07:38:27;1.00;0.50;0.00
56495;PMS5003;42804;55.762;38.084;2024-02-04T07:40:56;2.25;0.50;0.00
56495;PMS5003;42804;55.762;38.084;2024-02-04T07:43:26;1.00;1.00;0.00
56495;PMS5003;42804;55.762;38.084;2024-02-04T07:45:54;1.00;0.00;0.00
56495;PMS5003;42804;55.762;38.084;2024-02-04T07:48:24;2.50;1.50;0.75
56495;PMS5003;42804;55.762;38.084;2024-02-04T07:50:54;1.50;1.50;1.00
56495;PMS5003;42804;55.762;38.084;2024-02-04T07:53:22;0.00;0.00;0.00
56495;PMS5003;42804;55.762;38.084;2024-02-04T07:55:51;0.25;0.00;0.00
56495;PMS5003;42804;55.762;38.084;2024-02-04T07:58:19;0.25;0.00;0.00
56495;PMS5003;42804;55.762;38.084;2024-02-04T08:00:47;0.00;0.00;0.00
56495;PMS5003;42804;55.762;38.084;2024-02-04T08:03:16;0.75;0.75;0.00
56495;PMS5003;42804;55.762;38.084;2024-02-04T08:05:44;0.25;0.25;0.00
56495;PMS5003;42804;55.762;38.084;2024-02-04T08:08:14;3.00;1.50;0.50
56495;PMS5003;42804;55.762;38.084;2024-02-04T08:10:43;2.50;1.50;0.00
56495;PMS5003;42804;55.762;38.084;2024-02-04T08:13:11;3.00;2.00;1.00
56495;PMS5003;42804;55.762;38.084;2024-02-04T08:15:40;1.00;0.00;0.00
56495;PMS5003;42804;55.762;38.084;2024-02-04T08:18:08;0.00;0.00;0.00
56495;PMS5003;42804;55.762;38.084;2024-02-04T08:20:36;0.00;0.00;0.00
56495;PMS5003;42804;55.762;38.084;2024-02-04T08:23:05;2.00;0.50;0.50
56495;PMS5003;42804;55.762;38.084;2024-02-04T08:25:35;0.25;0.25;0.00
56495;PMS5003;42804;55.762;38.084;2024-02-04T08:28:03;0.25;0.25;0.00
56495;PMS5003;42804;55.762;38.084;2024-02-04T08:30:32;0.00;0.00;0.00
56495;PMS5003;42804;55.762;38.084;2024-02-04T08:33:01;0.25;0.25;0.00
56495;PMS5003;42804;55.762;38.084;2024-02-04T08:35:30;1.00;1.00;0.25
56495;PMS5003;42804;55.762;38.084;2024-02-04T08:37:59;1.00;1.00;0.00
56495;PMS5003;42804;55.762;38.084;2024-02-04T08:40:27;0.50;0.00;0.00
56495;PMS5003;42804;55.762;38.084;2024-02-04T08:42:57;1.00;0.00;0.00
56495;PMS5003;42804;55.762;38.084;2024-02-04T08:45:25;0.75;0.00;0.00
56495;PMS5003;42804;55.762;38.084;2024-02-04T08:47:54;0.00;0.00;0.00
56495;PMS5003;42804;55.762;38.084;2024-02-04T08:50:22;0.25;0.25;0.00
56495;PMS5003;42804;55.762;38.084;2024-02-04T08:52:51;0.25;0.25;0.00
56495;PMS5003;42804;55.762;38.084;2024-02-04T08:55:19;1.00;0.00;0.00
56495;PMS5003;42804;55.762;38.084;2024-02-04T08:57:48;0.00;0.00;0.00
56495;PMS5003;42804;55.762;38.084;2024-02-04T09:00:18;0.00;0.00;0.00
56495;PMS5003;42804;55.762;38.084;2024-02-04T09:02:47;0.00;0.00;0.00
56495;PMS5003;42804;55.762;38.084;2024-02-04T09:05:16;3.00;1.50;0.00
56495;PMS5003;42804;55.762;38.084;2024-02-04T09:07:45;0.00;0.00;0.00
56495;PMS5003;42804;55.762;38.084;2024-02-04T09:10:13;0.50;0.50;0.00
56495;PMS5003;42804;55.762;38.084;2024-02-04T09:12:42;3.50;1.00;1.00
56495;PMS5003;42804;55.762;38.084;2024-02-04T09:15:10;2.50;2.50;0.25
56495;PMS5003;42804;55.762;38.084;2024-02-04T09:17:40;1.00;1.00;0.75
56495;PMS5003;42804;55.762;38.084;2024-02-04T09:20:09;2.50;2.50;0.50
56495;PMS5003;42804;55.762;38.084;2024-02-04T09:22:38;4.50;1.50;1.00
56495;PMS5003;42804;55.762;38.084;2024-02-04T09:25:07;1.00;1.00;0.00
56495;PMS5003;42804;55.762;38.084;2024-02-04T09:27:36;0.25;0.25;0.00
56495;PMS5003;42804;55.762;38.084;2024-02-04T09:30:05;3.00;1.00;0.00
56495;PMS5003;42804;55.762;38.084;2024-02-04T09:32:34;1.00;1.00;0.25
56495;PMS5003;42804;55.762;38.084;2024-02-04T09:35:04;0.50;0.00;0.00
56495;PMS5003;42804;55.762;38.084;2024-02-04T09:37:33;1.50;0.50;0.25
56495;PMS5003;42804;55.762;38.084;2024-02-04T09:40:01;3.25;2.00;1.00
56495;PMS5003;42804;55.762;38.084;2024-02-04T09:42:31;0.75;0.00;0.00
56495;PMS5003;42804;55.762;38.084;2024-02-04T09:45:00;3.00;1.50;1.00
56495;PMS5003;42804;55.762;38.084;2024-02-04T09:47:31;2.50;2.00;0.00
56495;PMS5003;42804;55.762;38.084;2024-02-04T09:50:00;1.00;0.50;0.00
56495;PMS5003;42804;55.762;38.084;2024-02-04T09:52:31;1.50;1.50;0.00
56495;PMS5003;42804;55.762;38.084;2024-02-04T09:55:01;4.75;3.75;0.25
56495;PMS5003;42804;55.762;38.084;2024-02-04T09:57:33;4.00;3.25;0.25
56495;PMS5003;42804;55.762;38.084;2024-02-04T10:00:03;3.25;3.00;0.75
56495;PMS5003;42804;55.762;38.084;2024-02-04T10:02:38;5.50;0.25;0.00
56495;PMS5003;42804;55.762;38.084;2024-02-04T10:05:07;3.00;3.00;0.75
56495;PMS5003;42804;55.762;38.084;2024-02-04T10:07:38;5.25;4.50;1.50
56495;PMS5003;42804;55.762;38.084;2024-02-04T10:10:07;0.25;0.25;0.00
56495;PMS5003;42804;55.762;38.084;2024-02-04T10:12:36;1.00;1.00;0.00
56495;PMS5003;42804;55.762;38.084;2024-02-04T10:15:08;0.00;0.00;0.00
56495;PMS5003;42804;55.762;38.084;2024-02-04T10:17:37;0.00;0.00;0.00
56495;PMS5003;42804;55.762;38.084;2024-02-04T10:20:06;3.00;3.00;2.50
56495;PMS5003;42804;55.762;38.084;2024-02-04T10:22:35;3.75;3.00;1.00
56495;PMS5003;42804;55.762;38.084;2024-02-04T10:25:08;4.00;2.50;0.00
56495;PMS5003;42804;55.762;38.084;2024-02-04T10:27:37;3.00;2.50;0.00
56495;PMS5003;42804;55.762;38.084;2024-02-04T10:30:07;6.00;2.00;0.00
56495;PMS5003;42804;55.762;38.084;2024-02-04T10:32:35;3.00;1.00;0.25
56495;PMS5003;42804;55.762;38.084;2024-02-04T10:35:05;0.75;0.75;0.00
56495;PMS5003;42804;55.762;38.084;2024-02-04T10:37:34;3.50;2.00;0.00
56495;PMS5003;42804;55.762;38.084;2024-02-04T10:40:02;0.25;0.25;0.00
56495;PMS5003;42804;55.762;38.084;2024-02-04T10:42:32;2.00;2.00;1.00
56495;PMS5003;42804;55.762;38.084;2024-02-04T10:45:02;1.50;1.50;0.00
56495;PMS5003;42804;55.762;38.084;2024-02-04T10:47:34;3.00;1.00;0.00
56495;PMS5003;42804;55.762;38.084;2024-02-04T10:50:05;0.50;0.50;0.00
56495;PMS5003;42804;55.762;38.084;2024-02-04T10:52:35;1.00;0.00;0.00
56495;PMS5003;42804;55.762;38.084;2024-02-04T10:55:05;3.75;3.00;0.75
56495;PMS5003;42804;55.762;38.084;2024-02-04T10:57:37;3.25;3.00;0.25
56495;PMS5003;42804;55.762;38.084;2024-02-04T11:00:06;1.00;0.25;0.25
56495;PMS5003;42804;55.762;38.084;2024-02-04T11:02:40;4.25;3.00;1.00
56495;PMS5003;42804;55.762;38.084;2024-02-04T11:05:13;3.75;1.50;0.00
56495;PMS5003;42804;55.762;38.084;2024-02-04T11:07:43;3.00;2.50;1.00
56495;PMS5003;42804;55.762;38.084;2024-02-04T11:10:12;1.75;1.75;0.00
56495;PMS5003;42804;55.762;38.084;2024-02-04T11:12:43;5.50;3.25;0.50
56495;PMS5003;42804;55.762;38.084;2024-02-04T11:15:13;1.00;1.00;0.00
56495;PMS5003;42804;55.762;38.084;2024-02-04T11:17:55;3.25;1.00;0.00
56495;PMS5003;42804;55.762;38.084;2024-02-04T11:20:30;1.50;1.00;0.00
56495;PMS5003;42804;55.762;38.084;2024-02-04T11:23:15;0.00;0.00;0.00
56495;PMS5003;42804;55.762;38.084;2024-02-04T11:25:48;2.75;0.00;0.00
56495;PMS5003;42804;55.762;38.084;2024-02-04T11:28:19;2.50;1.50;0.25
56495;PMS5003;42804;55.762;38.084;2024-02-04T11:30:49;0.00;0.00;0.00
56495;PMS5003;42804;55.762;38.084;2024-02-04T11:33:18;0.50;0.00;0.00
56495;PMS5003;42804;55.762;38.084;2024-02-04T11:35:58;1.50;1.00;0.00
56495;PMS5003;42804;55.762;38.084;2024-02-04T11:38:30;0.25;0.25;0.00
56495;PMS5003;42804;55.762;38.084;2024-02-04T11:40:58;2.50;1.00;0.00
56495;PMS5003;42804;55.762;38.084;2024-02-04T11:43:32;1.50;1.00;0.00
56495;PMS5003;42804;55.762;38.084;2024-02-04T11:46:02;6.00;3.25;0.00
56495;PMS5003;42804;55.762;38.084;2024-02-04T11:48:32;1.00;0.50;0.00
56495;PMS5003;42804;55.762;38.084;2024-02-04T11:51:03;0.75;0.00;0.00
56495;PMS5003;42804;55.762;38.084;2024-02-04T11:53:33;3.50;1.00;0.00
56495;PMS5003;42804;55.762;38.084;2024-02-04T11:56:02;3.50;3.50;1.00
56495;PMS5003;42804;55.762;38.084;2024-02-04T11:58:32;2.50;1.50;0.00
56495;PMS5003;42804;55.762;38.084;2024-02-04T12:01:01;2.50;1.75;0.00
56495;PMS5003;42804;55.762;38.084;2024-02-04T12:03:30;3.50;3.00;1.00
56495;PMS5003;42804;55.762;38.084;2024-02-04T12:05:59;0.00;0.00;0.00
56495;PMS5003;42804;55.762;38.084;2024-02-04T12:08:28;3.00;1.00;0.00
56495;PMS5003;42804;55.762;38.084;2024-02-04T12:10:56;1.50;1.00;0.75
56495;PMS5003;42804;55.762;38.084;2024-02-04T12:13:26;5.50;2.50;0.75
56495;PMS5003;42804;55.762;38.084;2024-02-04T12:15:57;2.50;0.50;0.00
56495;PMS5003;42804;55.762;38.084;2024-02-04T12:18:25;1.00;1.00;1.00
56495;PMS5003;42804;55.762;38.084;2024-02-04T12:20:54;0.75;0.00;0.00
56495;PMS5003;42804;55.762;38.084;2024-02-04T12:23:22;1.00;1.00;0.00
56495;PMS5003;42804;55.762;38.084;2024-02-04T12:25:52;1.00;1.00;0.00
56495;PMS5003;42804;55.762;38.084;2024-02-04T12:28:21;1.00;0.75;0.50
56495;PMS5003;42804;55.762;38.084;2024-02-04T12:30:53;2.00;0.75;0.00
56495;PMS5003;42804;55.762;38.084;2024-02-04T12:33:22;1.00;0.50;0.00
56495;PMS5003;42804;55.762;38.084;2024-02-04T12:35:51;0.00;0.00;0.00
56495;PMS5003;42804;55.762;38.084;2024-02-04T12:38:23;1.50;0.75;0.00
56495;PMS5003;42804;55.762;38.084;2024-02-04T12:40:51;0.75;0.00;0.00
56495;PMS5003;42804;55.762;38.084;2024-02-04T12:43:19;0.00;0.00;0.00
56495;PMS5003;42804;55.762;38.084;2024-02-04T12:45:48;0.00;0.00;0.00
56495;PMS5003;42804;55.762;38.084;2024-02-04T12:48:16;0.00;0.00;0.00
56495;PMS5003;42804;55.762;38.084;2024-02-04T12:50:49;0.00;0.00;0.00
56495;PMS5003;42804;55.762;38.084;2024-02-04T12:53:18;2.00;0.00;0.00
56495;PMS5003;42804;55.762;38.084;2024-02-04T12:55:47;0.00;0.00;0.00
56495;PMS5003;42804;55.762;38.084;2024-02-04T12:58:15;0.00;0.00;0.00
56495;PMS5003;42804;55.762;38.084;2024-02-04T13:00:45;0.00;0.00;0.00
56495;PMS5003;42804;55.762;38.084;2024-02-04T13:03:15;0.00;0.00;0.00
56495;PMS5003;42804;55.762;38.084;2024-02-04T13:05:44;0.00;0.00;0.00
56495;PMS5003;42804;55.762;38.084;2024-02-04T13:08:14;3.50;1.00;0.00
56495;PMS5003;42804;55.762;38.084;2024-02-04T13:10:46;1.00;0.00;0.00
56495;PMS5003;42804;55.762;38.084;2024-02-04T13:13:21;0.00;0.00;0.00
56495;PMS5003;42804;55.762;38.084;2024-02-04T13:15:53;0.00;0.00;0.00
56495;PMS5003;42804;55.762;38.084;2024-02-04T13:18:21;0.50;0.00;0.00
56495;PMS5003;42804;55.762;38.084;2024-02-04T13:20:50;0.25;0.00;0.00
56495;PMS5003;42804;55.762;38.084;2024-02-04T13:23:20;1.00;1.00;0.00
56495;PMS5003;42804;55.762;38.084;2024-02-04T13:25:48;0.00;0.00;0.00
56495;PMS5003;42804;55.762;38.084;2024-02-04T13:28:17;0.00;0.00;0.00
56495;PMS5003;42804;55.762;38.084;2024-02-04T13:30:46;0.00;0.00;0.00
56495;PMS5003;42804;55.762;38.084;2024-02-04T13:33:14;0.00;0.00;0.00
56495;PMS5003;42804;55.762;38.084;2024-02-04T13:35:43;3.25;1.00;0.00
56495;PMS5003;42804;55.762;38.084;2024-02-04T13:38:12;0.00;0.00;0.00
56495;PMS5003;42804;55.762;38.084;2024-02-04T13:40:42;0.00;0.00;0.00
56495;PMS5003;42804;55.762;38.084;2024-02-04T13:43:10;0.00;0.00;0.00
56495;PMS5003;42804;55.762;38.084;2024-02-04T13:45:39;1.50;1.00;0.00
56495;PMS5003;42804;55.762;38.084;2024-02-04T13:48:07;0.00;0.00;0.00
56495;PMS5003;42804;55.762;38.084;2024-02-04T13:50:36;0.00;0.00;0.00
56495;PMS5003;42804;55.762;38.084;2024-02-04T13:53:05;0.75;0.75;0.00
56495;PMS5003;42804;55.762;38.084;2024-02-04T13:55:33;1.00;1.00;0.00
56495;PMS5003;42804;55.762;38.084;2024-02-04T13:58:05;0.75;0.75;0.00
56495;PMS5003;42804;55.762;38.084;2024-02-04T14:00:33;1.00;1.00;0.50
56495;PMS5003;42804;55.762;38.084;2024-02-04T14:03:02;1.50;0.00;0.00
56495;PMS5003;42804;55.762;38.084;2024-02-04T14:05:30;0.25;0.25;0.00
56495;PMS5003;42804;55.762;38.084;2024-02-04T14:07:59;0.00;0.00;0.00
56495;PMS5003;42804;55.762;38.084;2024-02-04T14:10:27;0.00;0.00;0.00